sensor_id;sensor_type;location;lat;lon;timestamp;temperature;humidity
3925;DHT22;1977;52.274;10.518;2024-03-07T00:01:50;6.90;99.90
3925;DHT22;1977;52.274;10.518;2024-03-07T00:04:17;6.80;99.90
3925;DHT22;1977;52.274;10.518;2024-03-07T00:06:44;6.80;99.90
3925;DHT22;1977;52.274;10.518;2024-03-07T00:09:11;6.80;99.90
3925;DHT22;1977;52.274;10.518;2024-03-07T00:11:38;6.70;99.90
3925;DHT22;1977;52.274;10.518;2024-03-07T00:14:06;6.70;99.90
3925;DHT22;1977;52.274;10.518;2024-03-07T00:16:33;6.70;99.90
3925;DHT22;1977;52.274;10.518;2024-03-07T00:19:00;6.70;99.90
3925;DHT22;1977;52.274;10.518;2024-03-07T00:21:27;6.70;99.90
3925;DHT22;1977;52.274;10.518;2024-03-07T00:23:54;6.70;99.90
3925;DHT22;1977;52.274;10.518;2024-03-07T00:26:21;6.70;99.90
3925;DHT22;1977;52.274;10.518;2024-03-07T00:28:47;6.60;99.90
3925;DHT22;1977;52.274;10.518;2024-03-07T00:31:16;6.60;99.90
3925;DHT22;1977;52.274;10.518;2024-03-07T00:33:42;6.60;99.90
3925;DHT22;1977;52.274;10.518;2024-03-07T00:36:09;6.50;99.90
3925;DHT22;1977;52.274;10.518;2024-03-07T00:38:37;6.50;99.90
3925;DHT22;1977;52.274;10.518;2024-03-07T00:41:04;6.50;99.90
3925;DHT22;1977;52.274;10.518;2024-03-07T00:43:31;6.50;99.90
3925;DHT22;1977;52.274;10.518;2024-03-07T00:45:58;6.40;99.90
3925;DHT22;1977;52.274;10.518;2024-03-07T00:48:26;6.40;99.90
3925;DHT22;1977;52.274;10.518;2024-03-07T00:50:52;6.40;99.90
3925;DHT22;1977;52.274;10.518;2024-03-07T00:53:19;6.40;99.90
3925;DHT22;1977;52.274;10.518;2024-03-07T00:55:46;6.40;99.90
3925;DHT22;1977;52.274;10.518;2024-03-07T00:58:13;6.30;99.90
3925;DHT22;1977;52.274;10.518;2024-03-07T01:00:40;6.30;99.90
3925;DHT22;1977;52.274;10.518;2024-03-07T01:05:36;6.30;99.90
3925;DHT22;1977;52.274;10.518;2024-03-07T01:08:04;6.30;99.90
3925;DHT22;1977;52.274;10.518;2024-03-07T01:10:32;6.40;99.90
3925;DHT22;1977;52.274;10.518;2024-03-07T01:12:59;6.40;99.90
3925;DHT22;1977;52.274;10.518;2024-03-07T01:15:27;6.40;99.90
3925;DHT22;1977;52.274;10.518;2024-03-07T01:17:54;6.50;99.90
3925;DHT22;1977;52.274;10.518;2024-03-07T01:20:21;6.50;99.90
3925;DHT22;1977;52.274;10.518;2024-03-07T01:22:50;6.50;99.90
3925;DHT22;1977;52.274;10.518;2024-03-07T01:25:17;6.50;99.90
3925;DHT22;1977;52.274;10.518;2024-03-07T01:27:44;6.50;99.90
3925;DHT22;1977;52.274;10.518;2024-03-07T01:30:13;6.60;99.90
3925;DHT22;1977;52.274;10.518;2024-03-07T01:32:40;6.60;99.90
3925;DHT22;1977;52.274;10.518;2024-03-07T01:35:07;6.60;99.90
3925;DHT22;1977;52.274;10.518;2024-03-07T01:37:35;6.70;99.90
3925;DHT22;1977;52.274;10.518;2024-03-07T01:40:03;7.00;99.90
3925;DHT22;1977;52.274;10.518;2024-03-07T01:42:30;6.70;99.90
3925;DHT22;1977;52.274;10.518;2024-03-07T01:44:57;6.70;99.90
3925;DHT22;1977;52.274;10.518;2024-03-07T01:47:24;6.80;99.90
3925;DHT22;1977;52.274;10.518;2024-03-07T01:49:51;6.70;99.90
3925;DHT22;1977;52.274;10.518;2024-03-07T01:52:18;6.90;99.90
3925;DHT22;1977;52.274;10.518;2024-03-07T01:54:46;7.00;99.90
3925;DHT22;1977;52.274;10.518;2024-03-07T01:57:15;6.80;99.90
3925;DHT22;1977;52.274;10.518;2024-03-07T01:59:44;6.80;99.90
3925;DHT22;1977;52.274;10.518;2024-03-07T02:02:11;6.80;99.90
3925;DHT22;1977;52.274;10.518;2024-03-07T02:04:37;6.80;99.90
3925;DHT22;1977;52.274;10.518;2024-03-07T02:07:04;6.80;99.90
3925;DHT22;1977;52.274;10.518;2024-03-07T02:09:31;6.80;99.90
3925;DHT22;1977;52.274;10.518;2024-03-07T02:11:58;6.80;99.90
3925;DHT22;1977;52.274;10.518;2024-03-07T02:14:26;6.70;99.90
3925;DHT22;1977;52.274;10.518;2024-03-07T02:16:54;7.10;99.90
3925;DHT22;1977;52.274;10.518;2024-03-07T02:19:22;6.60;99.90
3925;DHT22;1977;52.274;10.518;2024-03-07T02:21:51;6.70;99.90
3925;DHT22;1977;52.274;10.518;2024-03-07T02:24:17;6.70;99.90
3925;DHT22;1977;52.274;10.518;2024-03-07T02:26:44;6.70;99.90
3925;DHT22;1977;52.274;10.518;2024-03-07T02:29:11;6.80;99.90
3925;DHT22;1977;52.274;10.518;2024-03-07T02:31:37;6.80;99.90
3925;DHT22;1977;52.274;10.518;2024-03-07T02:34:07;6.80;99.90
3925;DHT22;1977;52.274;10.518;2024-03-07T02:36:34;6.80;99.90
3925;DHT22;1977;52.274;10.518;2024-03-07T02:39:02;6.80;99.90
3925;DHT22;1977;52.274;10.518;2024-03-07T02:41:30;6.70;99.90
3925;DHT22;1977;52.274;10.518;2024-03-07T02:43:57;6.80;99.90
3925;DHT22;1977;52.274;10.518;2024-03-07T02:46:23;6.80;99.90
3925;DHT22;1977;52.274;10.518;2024-03-07T02:48:50;6.80;99.90
3925;DHT22;1977;52.274;10.518;2024-03-07T02:51:17;6.80;99.90
3925;DHT22;1977;52.274;10.518;2024-03-07T02:53:44;6.80;99.90
3925;DHT22;1977;52.274;10.518;2024-03-07T02:56:12;6.70;99.90
3925;DHT22;1977;52.274;10.518;2024-03-07T02:58:38;6.70;99.90
3925;DHT22;1977;52.274;10.518;2024-03-07T03:01:11;6.60;99.90
3925;DHT22;1977;52.274;10.518;2024-03-07T03:03:38;6.70;99.90
3925;DHT22;1977;52.274;10.518;2024-03-07T03:06:07;6.60;99.90
3925;DHT22;1977;52.274;10.518;2024-03-07T03:08:35;6.80;99.90
3925;DHT22;1977;52.274;10.518;2024-03-07T03:11:02;6.70;99.90
3925;DHT22;1977;52.274;10.518;2024-03-07T03:13:30;6.70;99.90
3925;DHT22;1977;52.274;10.518;2024-03-07T03:15:57;6.70;99.90
3925;DHT22;1977;52.274;10.518;2024-03-07T03:18:24;6.70;99.90
3925;DHT22;1977;52.274;10.518;2024-03-07T03:20:51;6.70;99.90
3925;DHT22;1977;52.274;10.518;2024-03-07T03:23:18;6.80;99.90
3925;DHT22;1977;52.274;10.518;2024-03-07T03:25:46;6.80;99.90
3925;DHT22;1977;52.274;10.518;2024-03-07T03:28:13;6.80;99.90
3925;DHT22;1977;52.274;10.518;2024-03-07T03:30:42;6.80;99.90
3925;DHT22;1977;52.274;10.518;2024-03-07T03:33:09;6.80;99.90
3925;DHT22;1977;52.274;10.518;2024-03-07T03:35:37;6.90;99.90
3925;DHT22;1977;52.274;10.518;2024-03-07T03:38:04;7.20;99.90
3925;DHT22;1977;52.274;10.518;2024-03-07T03:40:31;6.90;99.90
3925;DHT22;1977;52.274;10.518;2024-03-07T03:42:58;6.90;99.90
3925;DHT22;1977;52.274;10.518;2024-03-07T03:45:25;6.80;99.90
3925;DHT22;1977;52.274;10.518;2024-03-07T03:47:53;6.90;99.90
3925;DHT22;1977;52.274;10.518;2024-03-07T03:50:20;6.80;99.90
3925;DHT22;1977;52.274;10.518;2024-03-07T03:52:48;6.80;99.90
3925;DHT22;1977;52.274;10.518;2024-03-07T03:55:15;6.80;99.90
3925;DHT22;1977;52.274;10.518;2024-03-07T03:57:43;6.80;99.90
3925;DHT22;1977;52.274;10.518;2024-03-07T04:00:13;6.90;99.90
3925;DHT22;1977;52.274;10.518;2024-03-07T04:02:40;6.80;99.90
3925;DHT22;1977;52.274;10.518;2024-03-07T04:05:09;6.90;99.90
3925;DHT22;1977;52.274;10.518;2024-03-07T04:07:36;6.90;99.90
3925;DHT22;1977;52.274;10.518;2024-03-07T04:10:04;7.20;99.90
3925;DHT22;1977;52.274;10.518;2024-03-07T04:12:33;7.00;99.90
3925;DHT22;1977;52.274;10.518;2024-03-07T04:15:00;7.00;99.90
3925;DHT22;1977;52.274;10.518;2024-03-07T04:17:29;6.90;99.90
3925;DHT22;1977;52.274;10.518;2024-03-07T04:19:56;6.90;99.90
3925;DHT22;1977;52.274;10.518;2024-03-07T04:22:25;7.00;99.90
3925;DHT22;1977;52.274;10.518;2024-03-07T04:24:53;7.00;99.90
3925;DHT22;1977;52.274;10.518;2024-03-07T04:27:20;7.00;99.90
3925;DHT22;1977;52.274;10.518;2024-03-07T04:29:47;7.00;99.90
3925;DHT22;1977;52.274;10.518;2024-03-07T04:32:14;7.40;99.90
3925;DHT22;1977;52.274;10.518;2024-03-07T04:34:44;7.10;99.90
3925;DHT22;1977;52.274;10.518;2024-03-07T04:37:11;7.10;99.90
3925;DHT22;1977;52.274;10.518;2024-03-07T04:39:39;7.10;99.90
3925;DHT22;1977;52.274;10.518;2024-03-07T04:42:07;7.20;99.90
3925;DHT22;1977;52.274;10.518;2024-03-07T04:44:35;7.50;99.90
3925;DHT22;1977;52.274;10.518;2024-03-07T04:47:03;7.20;99.90
3925;DHT22;1977;52.274;10.518;2024-03-07T04:49:32;7.20;99.90
3925;DHT22;1977;52.274;10.518;2024-03-07T04:51:59;7.30;99.90
3925;DHT22;1977;52.274;10.518;2024-03-07T04:54:27;7.60;99.90
3925;DHT22;1977;52.274;10.518;2024-03-07T04:56:56;7.30;99.90
3925;DHT22;1977;52.274;10.518;2024-03-07T04:59:23;7.30;99.90
3925;DHT22;1977;52.274;10.518;2024-03-07T05:01:50;7.30;99.90
3925;DHT22;1977;52.274;10.518;2024-03-07T05:04:17;7.30;99.90
3925;DHT22;1977;52.274;10.518;2024-03-07T05:06:45;7.70;99.90
3925;DHT22;1977;52.274;10.518;2024-03-07T05:09:13;7.40;99.90
3925;DHT22;1977;52.274;10.518;2024-03-07T05:11:48;7.40;99.90
3925;DHT22;1977;52.274;10.518;2024-03-07T05:14:18;7.50;99.90
3925;DHT22;1977;52.274;10.518;2024-03-07T05:16:45;7.60;99.90
3925;DHT22;1977;52.274;10.518;2024-03-07T05:19:27;7.50;99.90
3925;DHT22;1977;52.274;10.518;2024-03-07T05:21:54;7.60;99.90
3925;DHT22;1977;52.274;10.518;2024-03-07T05:24:21;7.60;99.90
3925;DHT22;1977;52.274;10.518;2024-03-07T05:26:48;7.60;99.90
3925;DHT22;1977;52.274;10.518;2024-03-07T05:29:15;7.60;99.90
3925;DHT22;1977;52.274;10.518;2024-03-07T05:31:44;7.60;99.90
3925;DHT22;1977;52.274;10.518;2024-03-07T05:34:12;7.60;99.90
3925;DHT22;1977;52.274;10.518;2024-03-07T05:36:40;7.80;99.90
3925;DHT22;1977;52.274;10.518;2024-03-07T05:39:10;7.60;99.90
3925;DHT22;1977;52.274;10.518;2024-03-07T05:41:37;7.70;99.90
3925;DHT22;1977;52.274;10.518;2024-03-07T05:44:04;7.90;99.90
3925;DHT22;1977;52.274;10.518;2024-03-07T05:46:34;7.60;99.90
3925;DHT22;1977;52.274;10.518;2024-03-07T05:49:03;7.70;99.90
3925;DHT22;1977;52.274;10.518;2024-03-07T05:51:30;7.60;99.90
3925;DHT22;1977;52.274;10.518;2024-03-07T05:53:57;7.60;99.90
3925;DHT22;1977;52.274;10.518;2024-03-07T05:56:24;7.60;99.90
3925;DHT22;1977;52.274;10.518;2024-03-07T05:58:51;7.60;99.90
3925;DHT22;1977;52.274;10.518;2024-03-07T06:01:17;7.60;99.90
3925;DHT22;1977;52.274;10.518;2024-03-07T06:03:45;7.70;99.90
3925;DHT22;1977;52.274;10.518;2024-03-07T06:06:15;7.70;99.90
3925;DHT22;1977;52.274;10.518;2024-03-07T06:08:42;7.70;99.90
3925;DHT22;1977;52.274;10.518;2024-03-07T06:11:10;7.70;99.90
3925;DHT22;1977;52.274;10.518;2024-03-07T06:13:38;8.00;99.90
3925;DHT22;1977;52.274;10.518;2024-03-07T06:16:05;7.60;99.90
3925;DHT22;1977;52.274;10.518;2024-03-07T06:18:34;7.70;99.90
3925;DHT22;1977;52.274;10.518;2024-03-07T06:21:01;7.70;99.90
3925;DHT22;1977;52.274;10.518;2024-03-07T06:23:31;7.70;99.90
3925;DHT22;1977;52.274;10.518;2024-03-07T06:25:58;7.70;99.90
3925;DHT22;1977;52.274;10.518;2024-03-07T06:28:26;7.70;99.90
3925;DHT22;1977;52.274;10.518;2024-03-07T06:30:54;7.70;99.90
3925;DHT22;1977;52.274;10.518;2024-03-07T06:33:21;7.70;99.90
3925;DHT22;1977;52.274;10.518;2024-03-07T06:35:48;7.70;99.90
3925;DHT22;1977;52.274;10.518;2024-03-07T06:38:14;7.90;99.90
3925;DHT22;1977;52.274;10.518;2024-03-07T06:40:43;7.80;99.90
3925;DHT22;1977;52.274;10.518;2024-03-07T06:43:10;7.70;99.90
3925;DHT22;1977;52.274;10.518;2024-03-07T06:45:36;7.60;99.90
3925;DHT22;1977;52.274;10.518;2024-03-07T06:48:04;7.60;99.90
3925;DHT22;1977;52.274;10.518;2024-03-07T06:50:32;7.60;99.90
3925;DHT22;1977;52.274;10.518;2024-03-07T06:52:59;7.50;99.90
3925;DHT22;1977;52.274;10.518;2024-03-07T06:55:26;7.60;99.90
3925;DHT22;1977;52.274;10.518;2024-03-07T06:57:55;7.60;99.90
3925;DHT22;1977;52.274;10.518;2024-03-07T07:00:21;7.60;99.90
3925;DHT22;1977;52.274;10.518;2024-03-07T07:02:48;7.60;99.90
3925;DHT22;1977;52.274;10.518;2024-03-07T07:05:16;7.80;99.90
3925;DHT22;1977;52.274;10.518;2024-03-07T07:07:43;7.60;99.90
3925;DHT22;1977;52.274;10.518;2024-03-07T07:10:11;7.70;99.90
3925;DHT22;1977;52.274;10.518;2024-03-07T07:12:42;7.80;99.90
3925;DHT22;1977;52.274;10.518;2024-03-07T07:15:11;7.70;99.90
3925;DHT22;1977;52.274;10.518;2024-03-07T07:17:38;7.80;99.90
3925;DHT22;1977;52.274;10.518;2024-03-07T07:20:06;7.70;99.90
3925;DHT22;1977;52.274;10.518;2024-03-07T07:22:36;7.70;99.90
3925;DHT22;1977;52.274;10.518;2024-03-07T07:25:04;7.70;99.90
3925;DHT22;1977;52.274;10.518;2024-03-07T07:27:32;7.70;99.90
3925;DHT22;1977;52.274;10.518;2024-03-07T07:29:58;7.70;99.90
3925;DHT22;1977;52.274;10.518;2024-03-07T07:32:27;7.90;99.90
3925;DHT22;1977;52.274;10.518;2024-03-07T07:34:54;7.80;99.90
3925;DHT22;1977;52.274;10.518;2024-03-07T07:37:21;7.80;99.90
3925;DHT22;1977;52.274;10.518;2024-03-07T07:39:48;7.80;99.90
3925;DHT22;1977;52.274;10.518;2024-03-07T07:42:15;7.70;99.90
3925;DHT22;1977;52.274;10.518;2024-03-07T07:44:42;7.80;99.90
3925;DHT22;1977;52.274;10.518;2024-03-07T07:47:09;7.70;99.90
3925;DHT22;1977;52.274;10.518;2024-03-07T07:49:38;7.80;99.90
3925;DHT22;1977;52.274;10.518;2024-03-07T07:52:07;7.80;99.90
3925;DHT22;1977;52.274;10.518;2024-03-07T07:54:34;7.80;99.90
3925;DHT22;1977;52.274;10.518;2024-03-07T07:57:01;7.80;99.90
3925;DHT22;1977;52.274;10.518;2024-03-07T07:59:27;7.90;99.90
3925;DHT22;1977;52.274;10.518;2024-03-07T08:01:55;7.80;99.90
3925;DHT22;1977;52.274;10.518;2024-03-07T08:04:22;7.80;99.90
3925;DHT22;1977;52.274;10.518;2024-03-07T08:06:50;8.00;99.90
3925;DHT22;1977;52.274;10.518;2024-03-07T08:09:17;8.10;99.90
3925;DHT22;1977;52.274;10.518;2024-03-07T08:11:44;7.90;99.90
3925;DHT22;1977;52.274;10.518;2024-03-07T08:14:10;7.90;99.90
3925;DHT22;1977;52.274;10.518;2024-03-07T08:16:37;7.90;99.90
3925;DHT22;1977;52.274;10.518;2024-03-07T08:19:05;7.90;99.90
3925;DHT22;1977;52.274;10.518;2024-03-07T08:21:32;7.90;99.90
3925;DHT22;1977;52.274;10.518;2024-03-07T08:24:00;8.00;99.90
3925;DHT22;1977;52.274;10.518;2024-03-07T08:26:29;8.00;99.90
3925;DHT22;1977;52.274;10.518;2024-03-07T08:28:56;8.00;99.90
3925;DHT22;1977;52.274;10.518;2024-03-07T08:31:23;8.10;99.90
3925;DHT22;1977;52.274;10.518;2024-03-07T08:33:51;8.10;99.90
3925;DHT22;1977;52.274;10.518;2024-03-07T08:36:19;8.20;99.90
3925;DHT22;1977;52.274;10.518;2024-03-07T08:38:47;8.30;99.90
3925;DHT22;1977;52.274;10.518;2024-03-07T08:41:18;8.20;99.90
3925;DHT22;1977;52.274;10.518;2024-03-07T08:43:45;8.20;99.90
3925;DHT22;1977;52.274;10.518;2024-03-07T08:46:12;8.20;99.90
3925;DHT22;1977;52.274;10.518;2024-03-07T08:48:38;8.20;99.90
3925;DHT22;1977;52.274;10.518;2024-03-07T08:51:05;8.30;99.90
3925;DHT22;1977;52.274;10.518;2024-03-07T08:53:32;8.20;99.90
3925;DHT22;1977;52.274;10.518;2024-03-07T08:56:01;8.20;99.90
3925;DHT22;1977;52.274;10.518;2024-03-07T08:58:29;8.20;99.90
3925;DHT22;1977;52.274;10.518;2024-03-07T09:00:56;8.20;99.90
3925;DHT22;1977;52.274;10.518;2024-03-07T09:03:24;8.20;99.90
3925;DHT22;1977;52.274;10.518;2024-03-07T09:05:51;8.20;99.90
3925;DHT22;1977;52.274;10.518;2024-03-07T09:08:18;8.20;99.90
3925;DHT22;1977;52.274;10.518;2024-03-07T09:10:45;8.20;99.90
3925;DHT22;1977;52.274;10.518;2024-03-07T09:13:12;8.20;99.90
3925;DHT22;1977;52.274;10.518;2024-03-07T09:15:40;8.40;99.90
3925;DHT22;1977;52.274;10.518;2024-03-07T09:18:07;8.20;99.90
3925;DHT22;1977;52.274;10.518;2024-03-07T09:20:33;8.30;99.90
3925;DHT22;1977;52.274;10.518;2024-03-07T09:23:00;8.30;99.90
3925;DHT22;1977;52.274;10.518;2024-03-07T09:25:27;8.30;99.90
3925;DHT22;1977;52.274;10.518;2024-03-07T09:27:58;8.40;99.90
3925;DHT22;1977;52.274;10.518;2024-03-07T09:30:25;8.40;99.90
3925;DHT22;1977;52.274;10.518;2024-03-07T09:32:54;8.30;99.90
3925;DHT22;1977;52.274;10.518;2024-03-07T09:35:21;8.40;99.90
3925;DHT22;1977;52.274;10.518;2024-03-07T09:37:48;8.50;99.90
3925;DHT22;1977;52.274;10.518;2024-03-07T09:40:15;8.60;99.90
3925;DHT22;1977;52.274;10.518;2024-03-07T09:42:43;8.60;99.90
3925;DHT22;1977;52.274;10.518;2024-03-07T09:45:17;8.60;99.90
3925;DHT22;1977;52.274;10.518;2024-03-07T09:47:45;8.70;99.90
3925;DHT22;1977;52.274;10.518;2024-03-07T09:50:16;8.80;99.90
3925;DHT22;1977;52.274;10.518;2024-03-07T09:52:45;8.70;99.90
3925;DHT22;1977;52.274;10.518;2024-03-07T09:55:12;8.80;99.90
3925;DHT22;1977;52.274;10.518;2024-03-07T09:57:40;8.70;99.90
3925;DHT22;1977;52.274;10.518;2024-03-07T10:00:09;8.70;99.90
3925;DHT22;1977;52.274;10.518;2024-03-07T10:02:44;8.80;99.90
3925;DHT22;1977;52.274;10.518;2024-03-07T10:05:15;8.60;99.90
3925;DHT22;1977;52.274;10.518;2024-03-07T10:07:44;8.60;99.90
3925;DHT22;1977;52.274;10.518;2024-03-07T10:10:11;8.60;99.90
3925;DHT22;1977;52.274;10.518;2024-03-07T10:12:38;8.60;99.90
3925;DHT22;1977;52.274;10.518;2024-03-07T10:15:05;8.70;99.90
3925;DHT22;1977;52.274;10.518;2024-03-07T10:17:36;8.70;99.90
3925;DHT22;1977;52.274;10.518;2024-03-07T10:20:04;8.70;99.90
3925;DHT22;1977;52.274;10.518;2024-03-07T10:22:37;8.80;99.90
3925;DHT22;1977;52.274;10.518;2024-03-07T10:25:04;8.90;99.90
3925;DHT22;1977;52.274;10.518;2024-03-07T10:27:31;9.10;99.90
3925;DHT22;1977;52.274;10.518;2024-03-07T10:29:58;9.30;99.90
3925;DHT22;1977;52.274;10.518;2024-03-07T10:32:24;9.50;99.90
3925;DHT22;1977;52.274;10.518;2024-03-07T10:34:52;9.40;99.90
3925;DHT22;1977;52.274;10.518;2024-03-07T10:37:20;9.50;99.90
3925;DHT22;1977;52.274;10.518;2024-03-07T10:39:49;9.40;99.90
3925;DHT22;1977;52.274;10.518;2024-03-07T10:42:16;9.40;99.90
3925;DHT22;1977;52.274;10.518;2024-03-07T10:44:45;9.30;99.90
3925;DHT22;1977;52.274;10.518;2024-03-07T10:47:15;9.30;99.90
3925;DHT22;1977;52.274;10.518;2024-03-07T10:49:59;9.50;99.90
3925;DHT22;1977;52.274;10.518;2024-03-07T10:52:49;9.30;99.90
3925;DHT22;1977;52.274;10.518;2024-03-07T10:55:27;9.40;99.90
3925;DHT22;1977;52.274;10.518;2024-03-07T10:58:02;9.50;99.90
3925;DHT22;1977;52.274;10.518;2024-03-07T11:00:31;10.00;99.90
3925;DHT22;1977;52.274;10.518;2024-03-07T11:03:02;10.50;99.90
3925;DHT22;1977;52.274;10.518;2024-03-07T11:05:33;11.10;99.90
3925;DHT22;1977;52.274;10.518;2024-03-07T11:08:01;11.30;99.90
3925;DHT22;1977;52.274;10.518;2024-03-07T11:10:34;11.40;99.90
3925;DHT22;1977;52.274;10.518;2024-03-07T11:13:03;11.30;99.90
3925;DHT22;1977;52.274;10.518;2024-03-07T11:15:30;11.20;99.90
3925;DHT22;1977;52.274;10.518;2024-03-07T11:17:58;11.10;99.90
3925;DHT22;1977;52.274;10.518;2024-03-07T11:20:26;10.90;99.90
3925;DHT22;1977;52.274;10.518;2024-03-07T11:22:53;10.50;99.90
3925;DHT22;1977;52.274;10.518;2024-03-07T11:25:21;10.30;99.90
3925;DHT22;1977;52.274;10.518;2024-03-07T11:27:54;10.10;99.90
3925;DHT22;1977;52.274;10.518;2024-03-07T11:30:22;10.00;99.90
3925;DHT22;1977;52.274;10.518;2024-03-07T11:32:50;9.80;99.90
3925;DHT22;1977;52.274;10.518;2024-03-07T11:35:19;9.80;99.90
3925;DHT22;1977;52.274;10.518;2024-03-07T11:37:56;9.70;99.90
3925;DHT22;1977;52.274;10.518;2024-03-07T11:40:46;9.50;99.90
3925;DHT22;1977;52.274;10.518;2024-03-07T11:43:17;9.50;99.90
3925;DHT22;1977;52.274;10.518;2024-03-07T11:45:44;9.60;99.90
3925;DHT22;1977;52.274;10.518;2024-03-07T11:48:18;9.70;99.90
3925;DHT22;1977;52.274;10.518;2024-03-07T11:50:47;9.70;99.90
3925;DHT22;1977;52.274;10.518;2024-03-07T11:53:14;9.80;99.90
3925;DHT22;1977;52.274;10.518;2024-03-07T11:55:41;9.80;99.90
3925;DHT22;1977;52.274;10.518;2024-03-07T11:58:16;9.80;99.90
3925;DHT22;1977;52.274;10.518;2024-03-07T12:00:44;9.80;99.90
3925;DHT22;1977;52.274;10.518;2024-03-07T12:03:12;9.80;99.90
3925;DHT22;1977;52.274;10.518;2024-03-07T12:05:40;9.70;99.90
3925;DHT22;1977;52.274;10.518;2024-03-07T12:08:09;9.70;99.90
3925;DHT22;1977;52.274;10.518;2024-03-07T12:10:36;9.60;99.90
3925;DHT22;1977;52.274;10.518;2024-03-07T12:13:05;9.60;99.90
3925;DHT22;1977;52.274;10.518;2024-03-07T12:15:34;9.60;98.80
3925;DHT22;1977;52.274;10.518;2024-03-07T12:18:02;9.80;98.80
3925;DHT22;1977;52.274;10.518;2024-03-07T12:20:35;9.70;98.90
3925;DHT22;1977;52.274;10.518;2024-03-07T12:23:03;9.60;99.40
3925;DHT22;1977;52.274;10.518;2024-03-07T12:25:33;9.60;99.50
3925;DHT22;1977;52.274;10.518;2024-03-07T12:28:02;9.50;99.70
3925;DHT22;1977;52.274;10.518;2024-03-07T12:30:34;9.60;99.50
3925;DHT22;1977;52.274;10.518;2024-03-07T12:33:02;9.60;99.50
3925;DHT22;1977;52.274;10.518;2024-03-07T12:35:32;9.60;99.50
3925;DHT22;1977;52.274;10.518;2024-03-07T12:37:59;9.60;99.80
3925;DHT22;1977;52.274;10.518;2024-03-07T12:40:29;9.60;99.60
3925;DHT22;1977;52.274;10.518;2024-03-07T12:42:59;9.60;99.10
3925;DHT22;1977;52.274;10.518;2024-03-07T12:45:28;9.60;99.50
3925;DHT22;1977;52.274;10.518;2024-03-07T12:47:59;9.60;99.30
3925;DHT22;1977;52.274;10.518;2024-03-07T12:50:29;9.60;99.50
3925;DHT22;1977;52.274;10.518;2024-03-07T12:52:56;9.70;99.70
3925;DHT22;1977;52.274;10.518;2024-03-07T12:55:23;9.80;99.60
3925;DHT22;1977;52.274;10.518;2024-03-07T12:57:50;9.80;99.70
3925;DHT22;1977;52.274;10.518;2024-03-07T13:00:17;9.90;99.30
3925;DHT22;1977;52.274;10.518;2024-03-07T13:02:48;10.00;98.50
3925;DHT22;1977;52.274;10.518;2024-03-07T13:05:17;10.00;98.00
3925;DHT22;1977;52.274;10.518;2024-03-07T13:07:47;10.00;97.80
3925;DHT22;1977;52.274;10.518;2024-03-07T13:10:14;10.00;97.70
3925;DHT22;1977;52.274;10.518;2024-03-07T13:12:43;10.00;98.10
3925;DHT22;1977;52.274;10.518;2024-03-07T13:15:11;10.00;97.60
3925;DHT22;1977;52.274;10.518;2024-03-07T13:17:38;10.00;97.70
3925;DHT22;1977;52.274;10.518;2024-03-07T13:20:05;10.00;97.40
3925;DHT22;1977;52.274;10.518;2024-03-07T13:22:40;10.00;97.30
3925;DHT22;1977;52.274;10.518;2024-03-07T13:25:08;10.30;97.30
3925;DHT22;1977;52.274;10.518;2024-03-07T13:27:41;10.10;96.40
3925;DHT22;1977;52.274;10.518;2024-03-07T13:30:10;10.10;96.20
3925;DHT22;1977;52.274;10.518;2024-03-07T13:32:50;10.20;96.10
3925;DHT22;1977;52.274;10.518;2024-03-07T13:35:19;10.20;96.10
3925;DHT22;1977;52.274;10.518;2024-03-07T13:37:49;10.20;96.00
3925;DHT22;1977;52.274;10.518;2024-03-07T13:40:16;10.20;95.70
3925;DHT22;1977;52.274;10.518;2024-03-07T13:42:51;10.10;95.80
3925;DHT22;1977;52.274;10.518;2024-03-07T13:45:20;10.10;96.30
3925;DHT22;1977;52.274;10.518;2024-03-07T13:47:48;10.00;95.00
3925;DHT22;1977;52.274;10.518;2024-03-07T13:50:16;10.00;94.70
3925;DHT22;1977;52.274;10.518;2024-03-07T13:52:45;10.00;94.40
3925;DHT22;1977;52.274;10.518;2024-03-07T13:55:33;9.90;94.60
3925;DHT22;1977;52.274;10.518;2024-03-07T13:58:04;9.90;94.90
3925;DHT22;1977;52.274;10.518;2024-03-07T14:00:43;9.60;93.90
3925;DHT22;1977;52.274;10.518;2024-03-07T14:03:38;9.50;94.20
3925;DHT22;1977;52.274;10.518;2024-03-07T14:06:12;9.60;94.10
3925;DHT22;1977;52.274;10.518;2024-03-07T14:08:56;9.50;94.70
3925;DHT22;1977;52.274;10.518;2024-03-07T14:11:59;9.60;94.00
3925;DHT22;1977;52.274;10.518;2024-03-07T14:21:09;9.60;94.90
3925;DHT22;1977;52.274;10.518;2024-03-07T14:24:06;9.70;94.80
3925;DHT22;1977;52.274;10.518;2024-03-07T14:27:03;9.80;93.50
3925;DHT22;1977;52.274;10.518;2024-03-07T14:29:43;9.70;92.60
3925;DHT22;1977;52.274;10.518;2024-03-07T14:32:10;9.60;92.80
3925;DHT22;1977;52.274;10.518;2024-03-07T14:34:57;9.50;93.00
3925;DHT22;1977;52.274;10.518;2024-03-07T14:37:31;9.40;93.00
3925;DHT22;1977;52.274;10.518;2024-03-07T14:40:07;9.50;93.40
3925;DHT22;1977;52.274;10.518;2024-03-07T14:42:39;9.50;93.10
3925;DHT22;1977;52.274;10.518;2024-03-07T14:45:12;9.50;93.50
3925;DHT22;1977;52.274;10.518;2024-03-07T14:47:39;9.70;93.60
3925;DHT22;1977;52.274;10.518;2024-03-07T14:50:08;9.70;93.00
3925;DHT22;1977;52.274;10.518;2024-03-07T14:52:35;9.70;92.50
3925;DHT22;1977;52.274;10.518;2024-03-07T14:55:06;9.80;92.50
3925;DHT22;1977;52.274;10.518;2024-03-07T14:57:34;9.80;92.50
3925;DHT22;1977;52.274;10.518;2024-03-07T15:00:03;9.80;92.40
3925;DHT22;1977;52.274;10.518;2024-03-07T15:02:39;9.80;92.20
3925;DHT22;1977;52.274;10.518;2024-03-07T15:05:07;9.90;92.40
3925;DHT22;1977;52.274;10.518;2024-03-07T15:07:34;9.70;92.20
3925;DHT22;1977;52.274;10.518;2024-03-07T15:10:02;9.80;92.00
3925;DHT22;1977;52.274;10.518;2024-03-07T15:12:33;9.90;91.70
3925;DHT22;1977;52.274;10.518;2024-03-07T15:14:59;9.80;91.50
3925;DHT22;1977;52.274;10.518;2024-03-07T15:17:28;9.80;91.90
3925;DHT22;1977;52.274;10.518;2024-03-07T15:19:55;9.90;91.60
3925;DHT22;1977;52.274;10.518;2024-03-07T15:22:21;9.80;91.60
3925;DHT22;1977;52.274;10.518;2024-03-07T15:24:50;9.80;91.80
3925;DHT22;1977;52.274;10.518;2024-03-07T15:27:17;9.70;91.60
3925;DHT22;1977;52.274;10.518;2024-03-07T15:29:46;9.60;91.80
3925;DHT22;1977;52.274;10.518;2024-03-07T15:32:13;9.60;92.10
3925;DHT22;1977;52.274;10.518;2024-03-07T15:34:45;9.60;91.20
3925;DHT22;1977;52.274;10.518;2024-03-07T15:37:16;9.70;91.10
3925;DHT22;1977;52.274;10.518;2024-03-07T15:39:46;9.70;91.40
3925;DHT22;1977;52.274;10.518;2024-03-07T15:42:13;9.70;91.10
3925;DHT22;1977;52.274;10.518;2024-03-07T15:44:40;9.60;90.50
3925;DHT22;1977;52.274;10.518;2024-03-07T15:47:10;9.70;90.60
3925;DHT22;1977;52.274;10.518;2024-03-07T15:49:38;9.90;91.30
3925;DHT22;1977;52.274;10.518;2024-03-07T15:52:07;9.70;91.10
3925;DHT22;1977;52.274;10.518;2024-03-07T15:54:38;9.70;90.90
3925;DHT22;1977;52.274;10.518;2024-03-07T15:57:05;9.70;92.40
3925;DHT22;1977;52.274;10.518;2024-03-07T15:59:31;9.60;93.60
3925;DHT22;1977;52.274;10.518;2024-03-07T16:01:58;9.60;92.00
3925;DHT22;1977;52.274;10.518;2024-03-07T16:04:26;9.50;90.90
3925;DHT22;1977;52.274;10.518;2024-03-07T16:06:52;9.50;91.20
3925;DHT22;1977;52.274;10.518;2024-03-07T16:09:20;9.50;91.00
3925;DHT22;1977;52.274;10.518;2024-03-07T16:11:48;9.50;91.00
3925;DHT22;1977;52.274;10.518;2024-03-07T16:14:15;9.70;91.20
3925;DHT22;1977;52.274;10.518;2024-03-07T16:16:42;9.50;91.20
3925;DHT22;1977;52.274;10.518;2024-03-07T16:19:08;9.50;91.40